Lancaster, SC (29720)

5:35 PM EDT on August 29, 2016 (GMT -0400)
Country Club Estates | | Change Station

Elev 522 ft 34.67 °N, 80.77 °W | Updated 6 seconds ago

Clear
Clear
95.9 °F
Feels Like 97 °F
N
2.2
Wind Variable Wind from SW

Today
High -- | Low -- °F
--% Chance of Precip.
Yesterday
High -- | Low -- °F
Precip. -- in
Pressure 30.07 in
Visibility 10.0 miles
Clouds Clear
Heat Index 97 °F
Dew Point 62 °F
Humidity 33%
Rainfall 0.00 in
Snow Depth Not available.
6:54 AM 7:52 PM
Waning Crescent, 7% visible
METAR KEQY 292053Z AUTO 02009KT 10SM CLR 32/14 A3008 RMK AO2 SLP182 T03220144 56018
Pressure 30.07 in
Visibility 10.0 miles
Clouds Clear
Heat Index 97 °F
Dew Point 62 °F
Humidity 33%
Rainfall 0.00 in
Snow Depth Not available.
6:54 AM 7:52 PM
Waning Crescent, 7% visible
METAR KEQY 292053Z AUTO 02009KT 10SM CLR 32/14 A3008 RMK AO2 SLP182 T03220144 56018
Tropical Depression Nine was centered about 170 miles west-southwest of Key West, Florida, as of late Monday morning. The depression may struggle a bit in the southern Gulf of Mexico before finally making a Gulf Coast landfall later this week with soaking rain and gusty winds.

This latest system was designated a tropical depression Sunday after a Hurricane Hunter reconnaissance mission finally found a sufficiently organized low-pressure center with collocated shower and thunderstorm activity.

10-Day Weather Forecast

Almanac

Astronomy

Aug. 29, 2016 Rise Set
Actual Time
Civil Twilight
Nautical Twilight
Astronomical Twilight
Moon
Length of Visible Light
Length of Day
Tomorrow will be .
, % of the Moon is Illuminated

Today's Extremes

State Highs State Lows

Community

WunderPhotos

Upload Photos

1,935,679 photos uploaded!

WunderBlog® & News

Nearby

Air Quality

  Air Quality AQ Index Pollutant
Not available.

Snow Depth

Station Depth Elevation

Earthquake Activity

City Distance Mag. Time & Date
Minimum magnitude displayed is 2.5.

Coastal Water Temperatures

Place Temperature

Stations

Nearby Weather Stations

Station Location Temp. Windchill Dew Point Humidity Wind Precip. Elev Updated Type
                   

Watches & Warnings

There are currently no watches in effect.